Time;durP1;ratioP1;P1;durP2;ratioP2;P2;SDS_P1;SDS_P2;PMS_P1;PMS_P2;Temp;Humidity;BMP_temperature;BMP_pressure;BME280_temperature;BME280_humidity;BME280_pressure;Samples;Min_cycle;Max_cycle;Signal;HPM_P1;HPM_P2
2023/03/05 00:00:34;;;;;;;64.30;37.30;;;10.50;73.50;;;;;;4590006;19;20457;-27
2023/03/05 00:02:26;;;;;;;64.43;35.43;;;10.40;73.30;;;;;;4590080;19;21046;-27
2023/03/05 00:03:58;;;;;;;63.10;35.83;;;10.50;73.50;;;;;;4590663;19;20476;-30
2023/03/05 00:05:48;;;;;;;60.03;33.35;;;10.50;73.80;;;;;;4589180;19;20499;-25
2023/03/05 00:07:20;;;;;;;59.13;34.63;;;10.50;74.30;;;;;;4590801;19;20006;-29
2023/03/05 00:08:52;;;;;;;58.80;33.53;;;10.50;74.10;;;;;;4589910;19;20081;-25
2023/03/05 00:10:24;;;;;;;46.47;28.23;;;10.50;74.10;;;;;;4587556;19;20034;-26
2023/03/05 00:11:56;;;;;;;62.08;37.80;;;10.50;73.80;;;;;;4590108;19;21108;-25
2023/03/05 00:13:28;;;;;;;;;;;10.50;74.30;;;;;;4588990;19;20022;-24
2023/03/05 00:14:59;;;;;;;97.63;58.07;;;10.50;74.40;;;;;;4587528;19;19918;-30
2023/03/05 00:16:31;;;;;;;122.83;75.03;;;10.50;73.70;;;;;;4590774;19;20528;-27
2023/03/05 00:18:03;;;;;;;77.07;46.50;;;10.50;74.10;;;;;;4589656;19;20484;-27
2023/03/05 00:19:35;;;;;;;168.40;101.30;;;10.50;73.70;;;;;;4590404;19;20073;-24
2023/03/05 00:21:45;;;;;;;61.60;35.35;;;10.50;73.80;;;;;;4590175;19;20564;-28
2023/03/05 00:23:16;;;;;;;45.97;30.07;;;10.40;73.90;;;;;;4586368;19;20412;-27
2023/03/05 00:24:50;;;;;;;42.10;28.20;;;10.40;74.00;;;;;;4588650;19;20460;-29
2023/03/05 00:26:23;;;;;;;28.83;18.13;;;10.50;73.90;;;;;;4587565;19;20025;-27
2023/03/05 00:27:55;;;;;;;31.13;16.30;;;10.50;74.40;;;;;;4587893;19;21207;-26
2023/03/05 00:29:27;;;;;;;28.40;14.90;;;10.50;73.80;;;;;;4586186;19;20815;-30
2023/03/05 00:31:00;;;;;;;36.20;21.47;;;10.50;73.50;;;;;;4586105;19;20074;-27
2023/03/05 00:32:32;;;;;;;37.77;23.53;;;10.50;73.50;;;;;;4587820;19;20600;-25
2023/03/05 00:34:07;;;;;;;132.47;80.87;;;10.50;73.90;;;;;;4585607;19;20581;-26
2023/03/05 00:35:42;;;;;;;148.60;87.17;;;10.50;74.00;;;;;;4587718;19;20445;-27
2023/03/05 00:37:13;;;;;;;130.20;57.00;;;10.50;73.70;;;;;;4586900;19;21099;-25
2023/03/05 00:38:45;;;;;;;77.30;33.28;;;10.40;73.70;;;;;;4587739;19;21083;-30
2023/03/05 00:40:18;;;;;;;52.43;26.30;;;10.40;73.70;;;;;;4587077;19;20135;-27
2023/03/05 00:41:50;;;;;;;59.00;27.75;;;10.50;74.00;;;;;;4586775;19;20461;-32
2023/03/05 00:43:22;;;;;;;51.30;23.70;;;10.50;74.00;;;;;;4587470;19;20014;-27
2023/03/05 00:44:54;;;;;;;45.07;20.20;;;10.40;74.00;;;;;;4587360;19;20495;-27
2023/03/05 00:46:26;;;;;;;35.47;18.45;;;10.40;73.40;;;;;;4586326;19;20526;-30
2023/03/05 00:47:57;;;;;;;32.88;16.05;;;10.40;73.70;;;;;;4586203;19;20031;-28
2023/03/05 00:49:28;;;;;;;30.42;15.93;;;10.40;73.30;;;;;;4587703;19;20030;-28
2023/03/05 00:51:01;;;;;;;30.70;15.33;;;10.40;74.00;;;;;;4585938;19;20022;-26
2023/03/05 00:52:32;;;;;;;27.80;13.90;;;10.40;73.70;;;;;;4588175;19;20475;-27
2023/03/05 00:54:03;;;;;;;31.30;16.73;;;10.50;74.20;;;;;;4587048;19;20011;-25
2023/03/05 00:55:35;;;;;;;23.50;11.27;;;10.50;74.10;;;;;;4589434;19;20341;-25
2023/03/05 00:57:07;;;;;;;23.30;13.10;;;10.40;73.70;;;;;;4587959;19;20497;-28
2023/03/05 00:58:39;;;;;;;30.98;17.05;;;10.40;74.00;;;;;;4588273;19;20848;-27
2023/03/05 01:00:11;;;;;;;27.08;15.75;;;10.50;74.20;;;;;;4590087;19;20360;-26
2023/03/05 01:01:42;;;;;;;25.47;12.93;;;10.40;73.90;;;;;;4588177;19;20018;-28
2023/03/05 01:03:13;;;;;;;27.27;16.05;;;10.40;74.00;;;;;;4589553;19;21120;-25
2023/03/05 01:04:46;;;;;;;26.55;14.60;;;10.40;73.80;;;;;;4588832;19;20089;-26
2023/03/05 01:06:18;;;;;;;27.43;14.07;;;10.40;73.90;;;;;;4589284;19;20018;-33
2023/03/05 01:07:54;;;;;;;19.50;11.50;;;10.40;74.50;;;;;;4589103;19;20490;-25
2023/03/05 01:09:27;;;;;;;20.07;11.27;;;10.40;74.30;;;;;;4589099;19;20461;-24
2023/03/05 01:10:58;;;;;;;;;;;10.40;74.20;;;;;;4590809;19;20488;-27
2023/03/05 01:12:29;;;;;;;19.97;10.87;;;10.40;74.20;;;;;;4588374;19;19951;-31
2023/03/05 01:14:02;;;;;;;20.67;11.37;;;10.40;74.00;;;;;;4588289;19;20788;-24
2023/03/05 01:15:33;;;;;;;22.00;10.98;;;10.40;74.00;;;;;;4589938;19;20445;-27
2023/03/05 01:17:04;;;;;;;21.20;10.80;;;10.40;74.30;;;;;;4588247;19;20031;-25
2023/03/05 01:18:38;;;;;;;20.97;11.83;;;10.40;74.20;;;;;;4587520;19;20014;-27
2023/03/05 01:20:11;;;;;;;22.50;11.40;;;10.40;74.40;;;;;;4587666;19;20484;-28
2023/03/05 01:21:43;;;;;;;17.87;10.10;;;10.30;74.30;;;;;;4586331;19;20019;-27
2023/03/05 01:23:16;;;;;;;19.10;11.07;;;10.30;74.20;;;;;;4588801;19;20838;-28
2023/03/05 01:24:47;;;;;;;18.77;11.80;;;10.30;74.40;;;;;;4587977;19;21052;-26
2023/03/05 01:26:18;;;;;;;17.65;10.52;;;10.30;74.90;;;;;;4587991;19;20026;-26
2023/03/05 01:27:51;;;;;;;18.50;11.07;;;10.40;74.80;;;;;;4587482;19;20041;-26
2023/03/05 01:29:23;;;;;;;22.63;11.18;;;10.40;74.70;;;;;;4587957;19;20893;-30
2023/03/05 01:30:54;;;;;;;18.63;11.02;;;10.40;74.70;;;;;;4586860;19;20018;-25
2023/03/05 01:32:25;;;;;;;;;;;10.40;74.40;;;;;;4589223;19;20010;-31
2023/03/05 01:33:59;;;;;;;19.53;10.63;;;10.40;74.90;;;;;;4587523;19;19911;-29
2023/03/05 01:35:30;;;;;;;16.13;9.57;;;10.40;74.90;;;;;;4589485;19;20025;-24
2023/03/05 01:37:01;;;;;;;15.90;9.48;;;10.40;74.90;;;;;;4588603;19;20560;-26
2023/03/05 01:38:32;;;;;;;18.88;10.57;;;10.40;74.60;;;;;;4586953;19;20044;-28
2023/03/05 01:40:05;;;;;;;57.50;43.23;;;10.40;75.00;;;;;;4589184;19;20018;-27
2023/03/05 01:41:37;;;;;;;63.33;45.67;;;10.40;74.80;;;;;;4590586;19;20460;-29
2023/03/05 01:43:11;;;;;;;52.60;34.95;;;10.40;75.00;;;;;;4592049;19;21071;-25
2023/03/05 01:45:11;;;;;;;35.87;18.77;;;10.40;75.20;;;;;;4591832;19;20033;-23
2023/03/05 01:46:45;;;;;;;34.08;15.93;;;10.40;75.90;;;;;;4593080;19;20491;-25
2023/03/05 01:48:18;;;;;;;32.57;15.00;;;10.40;75.30;;;;;;4590930;19;20031;-28
2023/03/05 01:49:50;;;;;;;27.77;13.63;;;10.40;75.20;;;;;;4592172;19;20469;-25
2023/03/05 01:51:23;;;;;;;27.58;17.20;;;10.40;75.30;;;;;;4591313;19;20457;-27
2023/03/05 01:53:00;;;;;;;24.63;13.20;;;10.40;75.30;;;;;;4591747;19;20021;-31
2023/03/05 01:54:38;;;;;;;26.50;14.83;;;10.40;75.40;;;;;;4590018;19;20986;-26
2023/03/05 01:56:10;;;;;;;21.20;12.40;;;10.40;75.10;;;;;;4590145;19;20441;-27
2023/03/05 01:57:49;;;;;;;20.70;12.43;;;10.40;74.90;;;;;;4591557;19;20464;-24
2023/03/05 02:01:13;;;;;;;21.02;12.95;;;10.40;75.70;;;;;;4591120;19;20449;-27
2023/03/05 02:02:46;;;;;;;18.92;12.32;;;10.40;75.40;;;;;;4591662;19;20007;-25
2023/03/05 02:04:19;;;;;;;21.53;11.83;;;10.40;75.30;;;;;;4593152;19;20010;-33
2023/03/05 02:05:50;;;;;;;19.98;10.40;;;10.40;75.70;;;;;;4591144;19;20457;-25
2023/03/05 02:07:21;;;;;;;18.10;10.05;;;10.40;75.90;;;;;;4592979;19;20011;-27
2023/03/05 02:08:53;;;;;;;20.83;10.98;;;10.40;75.50;;;;;;4591143;19;20022;-27
2023/03/05 02:10:26;;;;;;;17.38;10.10;;;10.40;75.30;;;;;;4592485;19;20006;-30
2023/03/05 02:11:58;;;;;;;21.30;10.33;;;10.40;76.50;;;;;;4590990;19;20090;-28
2023/03/05 02:13:32;;;;;;;21.93;10.80;;;10.40;76.20;;;;;;4591451;19;20457;-26
2023/03/05 02:15:05;;;;;;;19.57;10.70;;;10.40;76.10;;;;;;4590790;19;20822;-29
2023/03/05 02:16:36;;;;;;;17.85;8.52;;;10.40;75.80;;;;;;4591805;19;20589;-26
2023/03/05 02:18:08;;;;;;;20.90;10.33;;;10.40;75.80;;;;;;4589855;19;20014;-26
2023/03/05 02:19:51;;;;;;;16.53;9.67;;;10.40;75.80;;;;;;4593464;19;20445;-28
2023/03/05 02:21:35;;;;;;;15.37;9.83;;;10.40;76.00;;;;;;4592052;19;20975;-27
2023/03/05 02:23:07;;;;;;;16.97;9.40;;;10.40;76.00;;;;;;4593286;19;20440;-28
2023/03/05 02:24:39;;;;;;;15.77;8.90;;;10.40;76.30;;;;;;4591695;19;21059;-27
2023/03/05 02:26:10;;;;;;;17.95;9.73;;;10.40;76.10;;;;;;4590552;19;20066;-27
2023/03/05 02:27:43;;;;;;;16.17;9.35;;;10.40;76.20;;;;;;4593011;19;20507;-29
2023/03/05 02:29:17;;;;;;;19.50;10.63;;;10.40;76.20;;;;;;4588678;19;20483;-30
2023/03/05 02:30:50;;;;;;;20.70;11.17;;;10.40;76.20;;;;;;4589689;19;20504;-29
2023/03/05 02:32:21;;;;;;;20.90;10.38;;;10.40;76.30;;;;;;4589279;19;20512;-28
2023/03/05 02:33:54;;;;;;;21.40;11.45;;;10.40;76.30;;;;;;4587694;19;20022;-25
2023/03/05 02:35:26;;;;;;;19.97;10.47;;;10.40;76.30;;;;;;4590055;19;20123;-28
2023/03/05 02:36:58;;;;;;;20.50;12.27;;;10.40;76.80;;;;;;4589227;19;20457;-30
2023/03/05 02:38:29;;;;;;;21.98;13.88;;;10.40;76.40;;;;;;4590148;19;20031;-29
2023/03/05 02:40:02;;;;;;;20.93;13.43;;;10.40;76.90;;;;;;4589240;19;20614;-27
2023/03/05 02:41:34;;;;;;;25.13;14.07;;;10.40;76.70;;;;;;4590066;19;20513;-29
2023/03/05 02:43:07;;;;;;;22.13;12.47;;;10.40;77.40;;;;;;4589094;19;20503;-25
2023/03/05 02:44:39;;;;;;;25.57;13.87;;;10.40;76.80;;;;;;4589036;19;20487;-30
2023/03/05 02:46:12;;;;;;;22.07;12.30;;;10.40;77.00;;;;;;4588395;19;20559;-28
2023/03/05 02:47:43;;;;;;;19.90;10.35;;;10.40;76.80;;;;;;4589945;19;20499;-28
2023/03/05 02:49:14;;;;;;;16.13;10.70;;;10.40;76.90;;;;;;4589017;19;20487;-28
2023/03/05 02:50:45;;;;;;;21.90;11.40;;;10.40;77.00;;;;;;4588678;19;20010;-23
2023/03/05 02:52:17;;;;;;;26.52;12.98;;;10.40;77.00;;;;;;4589696;19;20031;-27
2023/03/05 02:53:48;;;;;;;19.20;10.75;;;10.40;77.10;;;;;;4588220;19;20018;-28
2023/03/05 02:55:21;;;;;;;21.33;11.63;;;10.40;77.10;;;;;;4589872;19;20021;-32
2023/03/05 02:56:54;;;;;;;20.60;10.40;;;10.40;77.00;;;;;;4589354;19;20511;-23
2023/03/05 02:58:25;;;;;;;24.70;12.00;;;10.40;77.00;;;;;;4588352;19;20623;-25
2023/03/05 02:59:58;;;;;;;22.30;11.20;;;10.40;77.30;;;;;;4588734;19;20014;-29
2023/03/05 03:01:30;;;;;;;19.00;10.97;;;10.40;77.30;;;;;;4588959;19;20433;-25
2023/03/05 03:03:02;;;;;;;20.17;10.02;;;10.40;77.40;;;;;;4590848;19;20543;-28
2023/03/05 03:04:33;;;;;;;20.83;10.10;;;10.40;77.30;;;;;;4591487;19;20074;-30
2023/03/05 03:06:06;;;;;;;19.27;9.93;;;10.40;77.40;;;;;;4589816;19;20683;-30
2023/03/05 03:07:38;;;;;;;16.80;9.83;;;10.40;77.40;;;;;;4591786;19;20474;-28
2023/03/05 03:09:10;;;;;;;21.07;10.43;;;10.40;77.20;;;;;;4590591;19;21108;-27
2023/03/05 03:10:43;;;;;;;21.90;11.53;;;10.40;77.50;;;;;;4591260;19;21143;-28
2023/03/05 03:12:14;;;;;;;23.60;12.95;;;10.40;77.90;;;;;;4591483;19;20452;-27
2023/03/05 03:13:45;;;;;;;19.38;10.80;;;10.40;78.00;;;;;;4590890;19;20050;-25
2023/03/05 03:15:18;;;;;;;17.87;10.10;;;10.40;78.00;;;;;;4589568;19;20073;-29
2023/03/05 03:16:52;;;;;;;19.40;10.43;;;10.40;77.90;;;;;;4591554;19;20461;-24
2023/03/05 03:18:24;;;;;;;35.15;18.95;;;10.40;77.80;;;;;;4590416;19;20562;-27
2023/03/05 03:19:55;;;;;;;;;;;10.40;77.90;;;;;;4592393;19;20015;-31
2023/03/05 03:21:26;;;;;;;20.80;11.87;;;10.40;78.20;;;;;;4590571;19;20263;-26
2023/03/05 03:22:58;;;;;;;20.15;10.45;;;10.40;78.00;;;;;;4591498;19;20402;-26
2023/03/05 03:24:30;;;;;;;23.65;13.57;;;10.40;78.00;;;;;;4590950;19;20397;-28
2023/03/05 03:26:02;;;;;;;17.20;9.43;;;10.40;78.40;;;;;;4588669;19;20117;-27
2023/03/05 03:27:33;;;;;;;19.05;10.23;;;10.40;78.30;;;;;;4591370;19;20445;-29
2023/03/05 03:29:06;;;;;;;28.13;16.90;;;10.40;78.10;;;;;;4590665;19;20014;-28
2023/03/05 03:30:37;;;;;;;23.25;13.55;;;10.40;78.00;;;;;;4591350;19;20457;-26
2023/03/05 03:32:08;;;;;;;31.75;15.93;;;10.40;78.20;;;;;;4590455;19;20366;-27
2023/03/05 03:33:40;;;;;;;31.20;17.87;;;10.40;78.40;;;;;;4589364;19;20431;-25
2023/03/05 03:35:12;;;;;;;86.55;46.90;;;10.40;78.50;;;;;;4591310;19;20507;-26
2023/03/05 03:36:45;;;;;;;50.33;26.83;;;10.40;78.20;;;;;;4588881;19;20035;-27
2023/03/05 03:38:16;;;;;;;52.40;28.50;;;10.30;78.20;;;;;;4590787;19;20893;-27
2023/03/05 03:39:47;;;;;;;53.22;30.75;;;10.30;78.10;;;;;;4589353;19;20465;-28
2023/03/05 03:41:19;;;;;;;32.28;16.45;;;10.40;78.10;;;;;;4590804;19;20019;-26
2023/03/05 03:42:51;;;;;;;24.20;15.53;;;10.30;78.10;;;;;;4590444;19;20081;-33
2023/03/05 03:44:25;;;;;;;33.73;23.73;;;10.40;78.20;;;;;;4589588;19;21060;-30
2023/03/05 03:45:56;;;;;;;28.15;15.27;;;10.40;78.10;;;;;;4589034;19;20500;-24
2023/03/05 03:47:29;;;;;;;24.77;14.48;;;10.40;78.00;;;;;;4591062;19;20010;-27
2023/03/05 03:49:00;;;;;;;22.50;10.97;;;10.40;78.00;;;;;;4590834;19;20066;-30
2023/03/05 03:50:33;;;;;;;17.60;10.17;;;10.40;78.20;;;;;;4589871;19;20473;-27
2023/03/05 03:52:05;;;;;;;17.17;10.23;;;10.40;78.60;;;;;;4590044;19;20469;-26
2023/03/05 03:53:36;;;;;;;21.17;12.10;;;10.40;78.50;;;;;;4589663;19;20495;-26
2023/03/05 03:55:08;;;;;;;18.02;10.88;;;10.40;78.30;;;;;;4590564;19;20010;-26
2023/03/05 03:56:40;;;;;;;14.93;8.63;;;10.40;78.70;;;;;;4589887;19;20018;-26
2023/03/05 03:58:12;;;;;;;16.43;8.33;;;10.40;78.60;;;;;;4589174;19;20469;-27
2023/03/05 03:59:45;;;;;;;16.30;9.60;;;10.40;78.70;;;;;;4589412;19;20453;-25
2023/03/05 04:01:18;;;;;;;17.73;9.10;;;10.40;78.50;;;;;;4588982;19;20832;-30
2023/03/05 04:02:50;;;;;;;14.73;8.20;;;10.40;78.70;;;;;;4589371;19;20499;-26
2023/03/05 04:04:21;;;;;;;14.52;8.40;;;10.40;78.80;;;;;;4587849;19;20453;-28
2023/03/05 04:05:54;;;;;;;13.33;7.63;;;10.40;79.10;;;;;;4590887;19;20073;-27
2023/03/05 04:07:26;;;;;;;15.05;7.50;;;10.40;78.90;;;;;;4589773;19;20461;-28
2023/03/05 04:08:57;;;;;;;12.48;6.95;;;10.40;78.60;;;;;;4590251;19;20476;-28
2023/03/05 04:10:28;;;;;;;12.95;7.60;;;10.40;78.50;;;;;;4589604;19;20015;-30
2023/03/05 04:11:59;;;;;;;16.05;9.50;;;10.40;78.50;;;;;;4588368;19;20028;-24
2023/03/05 04:13:31;;;;;;;17.73;10.77;;;10.40;78.80;;;;;;4589236;19;20015;-28
2023/03/05 04:15:04;;;;;;;13.30;7.55;;;10.40;78.80;;;;;;4587365;19;20381;-28
2023/03/05 04:16:36;;;;;;;10.80;6.93;;;10.40;79.20;;;;;;4586908;19;20523;-29
2023/03/05 04:18:10;;;;;;;13.10;7.30;;;10.40;78.90;;;;;;4590044;19;20456;-30
2023/03/05 04:19:41;;;;;;;11.17;6.70;;;10.40;78.80;;;;;;4589163;19;20491;-28
2023/03/05 04:21:14;;;;;;;10.87;6.17;;;10.40;79.20;;;;;;4590089;19;20484;-29
2023/03/05 04:22:45;;;;;;;11.10;7.03;;;10.40;79.30;;;;;;4589877;19;20770;-30
2023/03/05 04:24:16;;;;;;;12.30;7.15;;;10.40;79.20;;;;;;4588900;19;20082;-24
2023/03/05 04:25:49;;;;;;;14.73;6.40;;;10.40;79.00;;;;;;4590400;19;20039;-23
2023/03/05 04:27:22;;;;;;;13.30;7.00;;;10.40;79.10;;;;;;4587905;19;20461;-27
2023/03/05 04:28:53;;;;;;;14.45;6.68;;;10.40;79.60;;;;;;4589890;19;20433;-28
2023/03/05 04:30:27;;;;;;;11.70;7.07;;;10.40;79.50;;;;;;4589226;19;20046;-24
2023/03/05 04:31:59;;;;;;;11.70;6.63;;;10.40;79.60;;;;;;4589156;19;20473;-27
2023/03/05 04:33:33;;;;;;;13.17;7.63;;;10.40;79.30;;;;;;4588898;19;20453;-24
2023/03/05 04:35:04;;;;;;;11.95;8.25;;;10.40;79.10;;;;;;4587787;19;20460;-30
2023/03/05 04:36:35;;;;;;;13.20;7.43;;;10.40;79.20;;;;;;4589954;19;20030;-27
2023/03/05 04:38:07;;;;;;;11.85;7.63;;;10.40;79.50;;;;;;4589436;19;20018;-27
2023/03/05 04:39:38;;;;;;;16.25;7.97;;;10.40;79.50;;;;;;4589623;19;20362;-26
2023/03/05 04:41:11;;;;;;;12.97;7.83;;;10.40;79.30;;;;;;4588857;19;20392;-31
2023/03/05 04:42:43;;;;;;;11.50;7.68;;;10.40;79.20;;;;;;4587217;19;20488;-23
2023/03/05 04:44:16;;;;;;;12.73;6.80;;;10.40;79.40;;;;;;4588909;19;20379;-28
2023/03/05 04:45:47;;;;;;;10.93;6.27;;;10.40;79.10;;;;;;4588614;19;20027;-30
2023/03/05 04:47:19;;;;;;;11.63;6.57;;;10.40;79.30;;;;;;4590408;19;21095;-26
2023/03/05 04:48:51;;;;;;;12.73;6.18;;;10.40;79.10;;;;;;4589206;19;20010;-28
2023/03/05 04:50:23;;;;;;;13.03;7.03;;;10.40;79.80;;;;;;4590089;19;20026;-25
2023/03/05 04:51:56;;;;;;;11.52;6.32;;;10.40;79.50;;;;;;4588994;19;20499;-24
2023/03/05 04:53:27;;;;;;;10.40;6.47;;;10.40;79.50;;;;;;4586689;19;20038;-28
2023/03/05 04:55:00;;;;;;;14.10;7.27;;;10.40;79.50;;;;;;4587281;19;21072;-28
2023/03/05 04:56:31;;;;;;;;;;;10.40;79.40;;;;;;4590469;19;20449;-26
2023/03/05 04:58:03;;;;;;;12.40;6.70;;;10.40;79.80;;;;;;4587838;19;19915;-26
2023/03/05 04:59:36;;;;;;;11.50;6.93;;;10.50;79.40;;;;;;4587749;19;20052;-28
2023/03/05 05:01:08;;;;;;;10.87;5.93;;;10.40;79.10;;;;;;4590041;19;20460;-25
2023/03/05 05:02:40;;;;;;;11.77;7.47;;;10.40;79.50;;;;;;4588861;19;20449;-26
2023/03/05 05:04:12;;;;;;;12.73;6.77;;;10.40;79.10;;;;;;4590357;19;20064;-33
2023/03/05 05:05:44;;;;;;;11.60;6.85;;;10.40;79.60;;;;;;4588492;19;20465;-26
2023/03/05 05:07:17;;;;;;;14.33;9.07;;;10.40;79.70;;;;;;4589669;19;20103;-26
2023/03/05 05:08:49;;;;;;;12.60;7.43;;;10.40;80.10;;;;;;4588744;19;21124;-25
2023/03/05 05:10:21;;;;;;;13.98;8.45;;;10.40;79.80;;;;;;4588168;19;20483;-25
2023/03/05 05:11:52;;;;;;;15.30;7.68;;;10.50;79.90;;;;;;4589518;19;20062;-29
2023/03/05 05:13:24;;;;;;;12.07;7.43;;;10.50;80.20;;;;;;4588166;19;20082;-24
2023/03/05 05:14:57;;;;;;;14.57;7.57;;;10.50;79.70;;;;;;4587732;19;20902;-31
2023/03/05 05:16:29;;;;;;;14.93;8.40;;;10.50;79.40;;;;;;4588843;19;20417;-27
2023/03/05 05:18:00;;;;;;;11.13;6.53;;;10.50;79.40;;;;;;4594224;19;20437;-26
2023/03/05 05:19:32;;;;;;;14.95;7.63;;;10.50;79.80;;;;;;4589972;19;20098;-23
2023/03/05 05:21:11;;;;;;;12.63;7.25;;;10.50;79.80;;;;;;4592666;19;20018;-27
2023/03/05 05:22:42;;;;;;;11.37;6.40;;;10.40;81.40;;;;;;4591585;19;20020;-24
2023/03/05 05:24:14;;;;;;;;;;;10.30;80.10;;;;;;4594641;19;20496;-25
2023/03/05 05:25:45;;;;;;;13.80;7.43;;;10.30;80.40;;;;;;4592075;19;19919;-25
2023/03/05 05:27:16;;;;;;;12.95;6.82;;;10.30;80.10;;;;;;4591059;19;20483;-26
2023/03/05 05:28:48;;;;;;;14.57;8.13;;;10.30;80.20;;;;;;4592977;19;20021;-30
2023/03/05 05:30:20;;;;;;;12.70;6.83;;;10.30;80.40;;;;;;4591938;19;20050;-28
2023/03/05 05:31:52;;;;;;;11.05;6.95;;;10.30;80.30;;;;;;4593319;19;20461;-28
2023/03/05 05:33:24;;;;;;;11.60;6.33;;;10.30;80.30;;;;;;4592036;19;20027;-26
2023/03/05 05:34:56;;;;;;;13.05;6.82;;;10.30;80.40;;;;;;4588981;19;21087;-24
2023/03/05 05:36:28;;;;;;;11.67;6.40;;;10.30;80.40;;;;;;4590927;19;20010;-27
2023/03/05 05:37:59;;;;;;;13.10;7.18;;;10.30;80.50;;;;;;4592097;19;21159;-27
2023/03/05 05:39:31;;;;;;;12.32;6.80;;;10.30;80.10;;;;;;4592699;19;20022;-27
2023/03/05 05:41:13;;;;;;;11.83;6.83;;;10.30;80.60;;;;;;4592535;19;20490;-24
2023/03/05 05:42:44;;;;;;;10.85;6.80;;;10.30;80.80;;;;;;4592447;19;20798;-29
2023/03/05 05:44:15;;;;;;;12.18;6.43;;;10.30;80.40;;;;;;4592339;19;20018;-28
2023/03/05 05:45:47;;;;;;;10.70;5.88;;;10.40;80.30;;;;;;4592574;19;20440;-27
2023/03/05 05:47:18;;;;;;;15.30;7.07;;;10.40;80.50;;;;;;4593773;19;20174;-31
2023/03/05 05:48:50;;;;;;;13.07;6.47;;;10.40;80.50;;;;;;4591863;19;20042;-23
2023/03/05 05:50:24;;;;;;;10.13;6.50;;;10.30;80.30;;;;;;4593370;19;20420;-27
2023/03/05 05:51:56;;;;;;;12.83;6.90;;;10.40;80.40;;;;;;4592107;19;20449;-26
2023/03/05 05:53:27;;;;;;;12.93;6.77;;;10.30;80.70;;;;;;4592827;19;20479;-25
2023/03/05 05:54:58;;;;;;;12.93;7.22;;;10.40;80.90;;;;;;4591226;19;20862;-25
2023/03/05 05:56:30;;;;;;;13.50;6.85;;;10.40;80.80;;;;;;4592154;19;20007;-28
2023/03/05 05:58:01;;;;;;;12.13;6.68;;;10.40;80.80;;;;;;4592274;19;20022;-30
2023/03/05 05:59:33;;;;;;;;;;;10.40;80.60;;;;;;4592715;19;20029;-27
2023/03/05 06:01:25;;;;;;;14.33;7.03;;;10.30;80.60;;;;;;4592912;19;19930;-27
2023/03/05 06:02:56;;;;;;;13.18;6.82;;;10.30;80.80;;;;;;4593508;19;21072;-27
2023/03/05 06:04:28;;;;;;;12.50;7.20;;;10.30;80.60;;;;;;4591908;19;20018;-31
2023/03/05 06:06:00;;;;;;;14.32;7.18;;;10.40;81.00;;;;;;4592520;19;20015;-24
2023/03/05 06:07:32;;;;;;;;;;;10.40;80.70;;;;;;4593347;19;20022;-26
2023/03/05 06:09:03;;;;;;;;;;;10.40;81.20;;;;;;4592768;19;19970;-21
2023/03/05 06:10:35;;;;;;;16.50;8.43;;;10.40;81.20;;;;;;4592677;19;19922;-29
2023/03/05 06:12:06;;;;;;;11.35;6.40;;;10.40;81.10;;;;;;4590019;19;20488;-30
2023/03/05 06:13:38;;;;;;;12.85;7.20;;;10.40;80.80;;;;;;4591592;19;20038;-26
2023/03/05 06:15:09;;;;;;;13.05;6.68;;;10.40;81.00;;;;;;4588553;19;20025;-28
2023/03/05 06:16:41;;;;;;;11.73;7.63;;;10.40;80.70;;;;;;4591660;19;20017;-27
2023/03/05 06:18:12;;;;;;;13.38;7.35;;;10.40;80.90;;;;;;4591196;19;20460;-33
2023/03/05 06:19:44;;;;;;;13.88;8.40;;;10.40;80.80;;;;;;4592844;19;20019;-30
2023/03/05 06:21:16;;;;;;;14.73;9.00;;;10.40;81.40;;;;;;4590136;19;20074;-27
2023/03/05 06:22:48;;;;;;;15.80;7.53;;;10.40;81.20;;;;;;4590871;19;20506;-25
2023/03/05 06:24:21;;;;;;;15.50;8.10;;;10.40;81.10;;;;;;4591073;19;20456;-26
2023/03/05 06:25:52;;;;;;;13.33;7.57;;;10.40;81.10;;;;;;4591251;19;20051;-30
2023/03/05 06:27:25;;;;;;;16.10;8.63;;;10.50;81.10;;;;;;4590688;19;21024;-25
2023/03/05 06:28:58;;;;;;;15.57;8.10;;;10.40;81.20;;;;;;4590120;19;20839;-26
2023/03/05 06:30:29;;;;;;;14.90;8.67;;;10.50;81.20;;;;;;4592693;19;20037;-29
2023/03/05 06:32:00;;;;;;;14.73;8.07;;;10.50;81.10;;;;;;4591547;19;20699;-26
2023/03/05 06:33:32;;;;;;;18.65;9.00;;;10.40;81.00;;;;;;4591598;19;20358;-28
2023/03/05 06:35:03;;;;;;;15.73;8.27;;;10.40;81.10;;;;;;4589868;19;20026;-26
2023/03/05 06:36:35;;;;;;;13.53;7.77;;;10.50;80.80;;;;;;4590827;19;20014;-26
2023/03/05 06:38:07;;;;;;;15.90;8.60;;;10.50;81.00;;;;;;4592396;19;20456;-28
2023/03/05 06:39:39;;;;;;;16.92;9.40;;;10.50;81.10;;;;;;4589664;19;20449;-25
2023/03/05 06:41:12;;;;;;;15.97;8.17;;;10.50;81.30;;;;;;4592106;19;20006;-23
2023/03/05 06:42:44;;;;;;;13.97;8.03;;;10.50;81.40;;;;;;4592233;19;20505;-27
2023/03/05 06:44:16;;;;;;;14.88;7.32;;;10.50;81.60;;;;;;4592219;19;20775;-26
2023/03/05 06:45:47;;;;;;;14.25;7.75;;;10.60;81.20;;;;;;4593874;19;20010;-26
2023/03/05 06:47:18;;;;;;;14.85;7.63;;;10.50;81.30;;;;;;4592672;19;20014;-26
2023/03/05 06:48:50;;;;;;;14.32;8.85;;;10.50;81.00;;;;;;4593999;19;20481;-27
2023/03/05 06:50:21;;;;;;;;;;;10.50;81.20;;;;;;4594137;19;20511;-26
2023/03/05 06:51:53;;;;;;;14.40;6.90;;;10.50;81.40;;;;;;4592659;19;20234;-28
2023/03/05 06:53:24;;;;;;;12.70;7.50;;;10.50;81.20;;;;;;4592582;19;20453;-28
2023/03/05 06:54:56;;;;;;;13.77;8.40;;;10.50;81.30;;;;;;4590684;19;20015;-30
2023/03/05 06:56:28;;;;;;;14.77;7.40;;;10.60;81.50;;;;;;4592942;19;20018;-29
2023/03/05 06:57:59;;;;;;;13.13;7.15;;;10.60;81.20;;;;;;4592008;19;20512;-24
2023/03/05 06:59:31;;;;;;;;;;;10.60;81.50;;;;;;4588326;19;20044;-26
2023/03/05 07:01:05;;;;;;;14.02;8.77;;;10.60;82.00;;;;;;4590490;19;20245;-26
2023/03/05 07:02:37;;;;;;;12.07;7.33;;;10.60;81.20;;;;;;4588881;19;20014;-26
2023/03/05 07:04:08;;;;;;;14.70;7.97;;;10.60;81.20;;;;;;4590138;19;20508;-28
2023/03/05 07:05:41;;;;;;;16.25;8.20;;;10.60;81.40;;;;;;4589997;19;20686;-28
2023/03/05 07:07:12;;;;;;;15.90;8.40;;;10.60;81.70;;;;;;4590925;19;20019;-31
2023/03/05 07:08:46;;;;;;;13.60;7.53;;;10.60;81.70;;;;;;4591170;19;20508;-29
2023/03/05 07:10:18;;;;;;;14.83;8.00;;;10.60;81.40;;;;;;4589358;19;20019;-27
2023/03/05 07:11:49;;;;;;;12.65;7.95;;;10.60;81.60;;;;;;4591029;19;20453;-29
2023/03/05 07:13:20;;;;;;;11.48;6.38;;;10.60;81.40;;;;;;4591307;19;20026;-27
2023/03/05 07:14:52;;;;;;;12.27;7.00;;;10.60;81.30;;;;;;4589986;19;20014;-25
2023/03/05 07:16:29;;;;;;;12.88;7.68;;;10.60;81.60;;;;;;4589666;19;20025;-28
2023/03/05 07:18:01;;;;;;;13.60;6.80;;;10.60;81.60;;;;;;4588982;19;20015;-30
2023/03/05 07:19:34;;;;;;;11.13;5.93;;;10.60;81.60;;;;;;4590019;19;20436;-27
2023/03/05 07:21:06;;;;;;;11.20;6.05;;;10.50;81.60;;;;;;4591810;19;20920;-27
2023/03/05 07:22:39;;;;;;;10.30;5.97;;;10.50;82.20;;;;;;4590070;19;20033;-27
2023/03/05 07:24:10;;;;;;;11.47;5.67;;;10.50;82.20;;;;;;4590647;19;20472;-24
2023/03/05 07:25:42;;;;;;;11.85;5.82;;;10.50;82.00;;;;;;4589786;19;20513;-28
2023/03/05 07:27:13;;;;;;;10.02;5.65;;;10.50;82.40;;;;;;4590984;19;20014;-25
2023/03/05 07:28:44;;;;;;;13.45;6.30;;;10.60;82.50;;;;;;4589742;19;20426;-30
2023/03/05 07:30:16;;;;;;;10.68;5.72;;;10.60;82.40;;;;;;4591131;19;20468;-29
2023/03/05 07:31:47;;;;;;;10.73;5.22;;;10.50;82.40;;;;;;4590155;19;20014;-26
2023/03/05 07:33:26;;;;;;;8.68;5.43;;;10.50;82.40;;;;;;4590512;19;20014;-25
2023/03/05 07:34:58;;;;;;;10.13;6.00;;;10.50;82.80;;;;;;4587040;19;20703;-23
2023/03/05 07:36:30;;;;;;;10.93;6.13;;;10.50;82.80;;;;;;4588722;19;20492;-23
2023/03/05 07:38:02;;;;;;;;;;;10.60;83.00;;;;;;4589189;19;20456;-23
2023/03/05 07:39:33;;;;;;;12.10;5.88;;;10.60;83.20;;;;;;4589636;19;19910;-25
2023/03/05 07:41:09;;;;;;;10.93;6.38;;;10.60;83.00;;;;;;4590004;19;20025;-26
2023/03/05 07:42:41;;;;;;;11.27;6.07;;;10.70;83.40;;;;;;4590113;19;20010;-27
2023/03/05 07:44:12;;;;;;;8.82;6.15;;;10.70;83.20;;;;;;4590946;19;20457;-26
2023/03/05 07:45:45;;;;;;;20.47;12.17;;;10.70;83.40;;;;;;4589154;19;20027;-24
2023/03/05 07:47:16;;;;;;;26.80;15.10;;;10.70;83.30;;;;;;4590875;19;21010;-24
2023/03/05 07:48:48;;;;;;;50.55;26.25;;;10.80;83.80;;;;;;4589604;19;20588;-29
2023/03/05 07:50:19;;;;;;;35.67;17.38;;;10.80;83.80;;;;;;4589860;19;20092;-26
2023/03/05 07:51:50;;;;;;;41.55;21.77;;;10.80;83.50;;;;;;4590084;19;20011;-25
2023/03/05 07:53:24;;;;;;;41.47;21.77;;;10.80;83.90;;;;;;4589213;19;20695;-26
2023/03/05 07:54:55;;;;;;;28.93;15.73;;;10.80;84.80;;;;;;4590186;19;20480;-25
2023/03/05 07:56:33;;;;;;;16.75;9.80;;;10.90;84.60;;;;;;4589510;19;20469;-25